URSSURKA

Guest
Details From URSS - Sochi
To URKA - Vityazevo
Flight Number -
Tags generated
Created
Modified
Stats Distance 146 nm / 271 km
Max Altitude 14,700 ft / 4,481 m
Waypoints 5
Social Downloads 6
Likes 0
Share VATSIM

Download

Looking for another format? Having issues loading an existing format? Contact us
Advertisement - Login to hide

Notes

Basic altitude profile: - Ascent Rate: 2500ft/min - Ascent Speed: 250kts - Cruise Altitude: 35000ft - Cruise Speed: 420kts - Descent Rate: 1500ft/min - Descent Speed: 250kts Options: - Use NATs: yes - Use PACOTS: yes - Use low airways: yes - Use high airways: yes

Route

URSS PROZR B367 RUMBA URKA

ID Type Via Altitude Latitude Longitude Leg Dist Tot Dist Heading (true) Name
O URSS APT - 0 ft / 0 m 43.44475˚ 39.94730˚ - 0 nm - Sochi
PROZR FIX - 4,400 ft / 1,341 m 43.55806˚ 39.71028˚ 12 nm 12 nm 303° / 303° -
NIBUS FIX B367 (AWY-LO) 12,800 ft / 3,901 m 43.79667˚ 39.27667˚ 23 nm 36 nm 307° / 307° -
RUMBA FIX B367 (AWY-LO) 14,700 ft / 4,481 m 43.86667˚ 39.11667˚ 8 nm 44 nm 301° / 301° -
O URKA APT - 0 ft / 0 m 45.00190˚ 37.34761˚ 101 nm 146 nm 313° / 311° Vityazevo

Altitude Profile

Advertisement - Login to hide

URSS

Details ICAO URSS (AER)
Name Sochi
Region Russia
Timezone Europe/Moscow (UTC+3.0)
Stats Elevation 89 ft / 27 m (AMSL)
Location 43.444749° 39.947302°
Runways 2
Magnetic Variation 7.002° E

METAR

URSS 251300Z 28004MPS 9999 NSC 23/19 Q1009 R02/090070 R06/090070 NOSIG RMK R06/28005G08MPS QFE755

Decode

TAF

TAF URSS 251055Z 2512/2612 28006G11MPS 9999 SCT030CB BKN100 TEMPO 2512/2517 VRB07G12MPS -TSRA BECMG 2517/2519 05006MPS BKN011 SCT020CB BKN100

Decode

Departure Runways

ID Width Length Bearing (true) Bearing (mag) Surface Threshold Offset Overrun Length
02 161 ft / 49 m 7,267 ft / 2,215 m 28.98° 21.98° Concrete 0 ft / 0 m 0 ft / 0 m
06 164 ft / 50 m 9,531 ft / 2,905 m 64.90° 57.90° Concrete 262 ft / 80 m 0 ft / 0 m
20 161 ft / 49 m 7,267 ft / 2,215 m 208.99° 201.99° Concrete 0 ft / 0 m 0 ft / 0 m
24 164 ft / 50 m 9,531 ft / 2,905 m 244.92° 237.92° Concrete 0 ft / 0 m 0 ft / 0 m

URKA

Details ICAO URKA (AAQ)
Name Vityazevo
Region Russia
Timezone Europe/Moscow (UTC+3.0)
Stats Elevation 173 ft / 53 m (AMSL)
Location 45.001895° 37.347609°
Runways 2
Magnetic Variation 7.215° E

METAR

URKA 251300Z 03006MPS 9999 SCT/// 28/17 Q1010 R04/010070 TEMPO 06007G14MPS RMK QFE753/1004

Decode

TAF

TAF TAF URKA 251056Z 2512/2612 06005G10MPS 9999 SCT030CB PROB40 TEMPO 2512/2518 3100 -TSRA SCT011 BKN030CB

Decode

Destination Runways

ID Width Length Bearing (true) Bearing (mag) Surface Threshold Offset Overrun Length
04 138 ft / 42 m 7,961 ft / 2,426 m 43.79° 36.58° Concrete 0 ft / 0 m 157 ft / 48 m
04R 312 ft / 95 m 8,009 ft / 2,441 m 43.78° 36.57° Grass 0 ft / 0 m 0 ft / 0 m
22 138 ft / 42 m 7,961 ft / 2,426 m 223.81° 216.60° Concrete 0 ft / 0 m 164 ft / 50 m
22L 312 ft / 95 m 8,009 ft / 2,441 m 223.80° 216.59° Grass 0 ft / 0 m 0 ft / 0 m

Popular Alternatives